createdAt,value
2018-08-24T00:00:17.696Z,23.75
2018-08-24T00:01:17.621Z,23.75
2018-08-24T00:02:17.722Z,23.75
2018-08-24T00:03:17.627Z,23.75
2018-08-24T00:04:17.559Z,23.74
2018-08-24T00:05:17.542Z,23.75
2018-08-24T00:06:17.599Z,23.75
2018-08-24T00:07:17.649Z,23.74
2018-08-24T00:08:17.767Z,23.75
2018-08-24T00:09:17.651Z,23.75
2018-08-24T00:10:17.583Z,23.74
2018-08-24T00:11:17.534Z,23.74
2018-08-24T00:12:17.641Z,23.75
2018-08-24T00:13:17.803Z,23.73
2018-08-24T00:14:17.583Z,23.74
2018-08-24T00:15:17.635Z,23.75
2018-08-24T00:16:17.538Z,23.73
2018-08-24T00:17:17.647Z,23.74
2018-08-24T00:18:17.638Z,23.75
2018-08-24T00:19:17.683Z,23.74
2018-08-24T00:20:17.701Z,23.74
2018-08-24T00:21:17.766Z,23.74
2018-08-24T00:22:17.542Z,23.74
2018-08-24T00:23:17.877Z,23.74
2018-08-24T00:24:17.592Z,23.74
2018-08-24T00:25:17.602Z,23.74
2018-08-24T00:26:17.782Z,23.74
2018-08-24T00:27:17.857Z,23.74
2018-08-24T00:28:17.519Z,23.74
2018-08-24T00:29:17.693Z,23.74
2018-08-24T00:30:17.739Z,23.73
2018-08-24T00:31:17.767Z,23.73
2018-08-24T00:32:17.526Z,23.73
2018-08-24T00:33:17.636Z,23.74
2018-08-24T00:34:17.782Z,23.73
2018-08-24T00:35:17.657Z,23.74
2018-08-24T00:36:17.658Z,23.74
2018-08-24T00:37:17.631Z,23.73
2018-08-24T00:38:17.628Z,23.73
2018-08-24T00:39:17.819Z,23.73
2018-08-24T00:40:17.496Z,23.73
2018-08-24T00:41:17.626Z,23.74
2018-08-24T00:42:17.556Z,23.73
2018-08-24T00:43:17.706Z,23.73
2018-08-24T00:44:17.929Z,23.73
2018-08-24T00:45:17.711Z,23.74
2018-08-24T00:46:17.747Z,23.72
2018-08-24T00:47:17.560Z,23.72
2018-08-24T00:48:17.569Z,23.73
2018-08-24T00:49:18.047Z,23.73
2018-08-24T00:50:17.571Z,23.73
2018-08-24T00:51:17.680Z,23.73
2018-08-24T00:52:17.695Z,23.73
2018-08-24T00:53:17.613Z,23.73
2018-08-24T00:54:17.639Z,23.73
2018-08-24T00:55:17.775Z,23.72
2018-08-24T00:56:17.544Z,23.72
2018-08-24T00:57:17.529Z,23.73
2018-08-24T00:58:17.941Z,23.72
2018-08-24T00:59:17.708Z,23.73
2018-08-24T01:00:17.661Z,23.73
2018-08-24T01:01:17.612Z,23.73
2018-08-24T01:02:17.774Z,23.73
2018-08-24T01:03:17.927Z,23.72
2018-08-24T01:04:17.692Z,23.72
2018-08-24T01:05:17.617Z,23.72
2018-08-24T01:06:17.787Z,23.72
2018-08-24T01:07:17.439Z,23.72
2018-08-24T01:08:17.500Z,23.72
2018-08-24T01:09:17.559Z,23.73
2018-08-24T01:10:17.618Z,23.72
2018-08-24T01:11:17.743Z,23.72
2018-08-24T01:12:17.440Z,23.72
2018-08-24T01:13:17.651Z,23.71
2018-08-24T01:14:17.675Z,23.72
2018-08-24T01:15:17.669Z,23.72
2018-08-24T01:16:17.592Z,23.71
2018-08-24T01:17:17.532Z,23.72
2018-08-24T01:18:17.593Z,23.73
2018-08-24T01:19:17.631Z,23.72
2018-08-24T01:20:17.830Z,23.72
2018-08-24T01:21:17.568Z,23.71
2018-08-24T01:22:17.684Z,23.72
2018-08-24T01:23:17.608Z,23.72
2018-08-24T01:24:17.742Z,23.73
2018-08-24T01:25:17.759Z,23.72
2018-08-24T01:26:17.676Z,23.72
2018-08-24T01:27:17.638Z,23.72
2018-08-24T01:28:17.994Z,23.72
2018-08-24T01:29:17.488Z,23.72
2018-08-24T01:30:17.546Z,23.71
2018-08-24T01:31:17.588Z,23.71
2018-08-24T01:32:17.591Z,23.72
2018-08-24T01:33:17.672Z,23.72
2018-08-24T01:34:17.901Z,23.71
2018-08-24T01:35:17.670Z,23.71
2018-08-24T01:36:17.476Z,23.71
2018-08-24T01:37:17.508Z,23.7
2018-08-24T01:38:17.567Z,23.71
2018-08-24T01:39:17.462Z,23.7
2018-08-24T01:40:17.600Z,23.7
2018-08-24T01:41:17.703Z,23.71
2018-08-24T01:42:17.577Z,23.71
2018-08-24T01:43:17.680Z,23.7
2018-08-24T01:44:18.114Z,23.71
2018-08-24T01:45:17.677Z,23.71
2018-08-24T01:46:17.793Z,23.7
2018-08-24T01:47:17.455Z,23.71
2018-08-24T01:48:17.776Z,23.71
2018-08-24T01:49:17.711Z,23.7
2018-08-24T01:50:17.681Z,23.71
2018-08-24T01:51:17.615Z,23.71
2018-08-24T01:52:17.664Z,23.71
2018-08-24T01:53:17.657Z,23.71
2018-08-24T01:54:17.567Z,23.71
2018-08-24T01:55:17.661Z,23.7
2018-08-24T01:56:17.748Z,23.7
2018-08-24T01:57:17.723Z,23.71
2018-08-24T01:58:17.728Z,23.7
2018-08-24T01:59:17.735Z,23.71
2018-08-24T02:00:17.744Z,23.71
2018-08-24T02:01:18.032Z,23.7
2018-08-24T02:02:17.625Z,23.7
2018-08-24T02:03:17.577Z,23.7
2018-08-24T02:04:17.590Z,23.69
2018-08-24T02:05:17.578Z,23.7
2018-08-24T02:06:17.701Z,23.7
2018-08-24T02:07:17.878Z,23.7
2018-08-24T02:08:17.609Z,23.7
2018-08-24T02:09:17.425Z,23.7
2018-08-24T02:10:17.508Z,23.69
2018-08-24T02:11:17.758Z,23.7
2018-08-24T02:12:17.658Z,23.71
2018-08-24T02:13:17.944Z,23.7
2018-08-24T02:14:17.782Z,23.69
2018-08-24T02:15:17.728Z,23.69
2018-08-24T02:16:17.553Z,23.7
2018-08-24T02:17:18.021Z,23.69
2018-08-24T02:18:17.812Z,23.7
2018-08-24T02:19:17.573Z,23.69
2018-08-24T02:20:17.570Z,23.69
2018-08-24T02:21:17.715Z,23.69
2018-08-24T02:22:17.631Z,23.69
2018-08-24T02:23:18.001Z,23.7
2018-08-24T02:24:17.540Z,23.69
2018-08-24T02:25:17.589Z,23.69
2018-08-24T02:26:17.502Z,23.7
2018-08-24T02:27:17.550Z,23.7
2018-08-24T02:28:17.688Z,23.69
2018-08-24T02:29:17.431Z,23.69
2018-08-24T02:30:17.609Z,23.69
2018-08-24T02:31:17.695Z,23.69
2018-08-24T02:32:17.761Z,23.69
2018-08-24T02:33:17.614Z,23.69
2018-08-24T02:34:17.888Z,23.69
2018-08-24T02:35:17.702Z,23.69
2018-08-24T02:36:17.926Z,23.69
2018-08-24T02:37:17.729Z,23.68
2018-08-24T02:38:17.588Z,23.69
2018-08-24T02:39:17.463Z,23.69
2018-08-24T02:40:17.660Z,23.68
2018-08-24T02:41:17.580Z,23.69
2018-08-24T02:42:17.611Z,23.69
2018-08-24T02:43:17.696Z,23.7
2018-08-24T02:44:17.588Z,23.69
2018-08-24T02:45:17.625Z,23.69
2018-08-24T02:46:17.795Z,23.69
2018-08-24T02:47:17.587Z,23.69
2018-08-24T02:48:17.675Z,23.69
2018-08-24T02:49:17.642Z,23.68
2018-08-24T02:50:17.587Z,23.69
2018-08-24T02:51:17.517Z,23.68
2018-08-24T02:52:17.646Z,23.68
2018-08-24T02:53:17.495Z,23.68
2018-08-24T02:54:17.562Z,23.69
2018-08-24T02:55:17.472Z,23.68
2018-08-24T02:56:17.756Z,23.69
2018-08-24T02:57:17.604Z,23.69
2018-08-24T02:58:17.612Z,23.68
2018-08-24T02:59:17.692Z,23.68
2018-08-24T03:00:17.567Z,23.68
2018-08-24T03:01:17.552Z,23.68
2018-08-24T03:02:17.661Z,23.68
2018-08-24T03:03:17.845Z,23.68
2018-08-24T03:04:17.663Z,23.68
2018-08-24T03:05:17.732Z,23.68
2018-08-24T03:06:17.547Z,23.68
2018-08-24T03:07:17.704Z,23.68
2018-08-24T03:08:17.666Z,23.68
2018-08-24T03:09:17.505Z,23.67
2018-08-24T03:10:17.514Z,23.66
2018-08-24T03:11:17.862Z,23.68
2018-08-24T03:12:17.574Z,23.68
2018-08-24T03:13:17.470Z,23.68
2018-08-24T03:14:17.858Z,23.67
2018-08-24T03:15:17.695Z,23.67
2018-08-24T03:16:17.640Z,23.66
2018-08-24T03:17:17.589Z,23.67
2018-08-24T03:18:17.584Z,23.68
2018-08-24T03:19:17.718Z,23.67
2018-08-24T03:20:17.866Z,23.68
2018-08-24T03:21:17.652Z,23.68
2018-08-24T03:22:17.616Z,23.67
2018-08-24T03:23:17.543Z,23.68
2018-08-24T03:24:17.705Z,23.68
2018-08-24T03:25:17.720Z,23.66
2018-08-24T03:26:17.604Z,23.67
2018-08-24T03:27:17.624Z,23.68
2018-08-24T03:28:17.434Z,23.66
2018-08-24T03:29:17.679Z,23.67
2018-08-24T03:30:17.547Z,23.66
2018-08-24T03:31:17.556Z,23.66
2018-08-24T03:32:18.101Z,23.66
2018-08-24T03:33:17.761Z,23.67
2018-08-24T03:34:17.579Z,23.66
2018-08-24T03:35:17.644Z,23.66
2018-08-24T03:36:17.560Z,23.67
2018-08-24T03:37:17.461Z,23.67
2018-08-24T03:38:17.579Z,23.67
2018-08-24T03:39:17.647Z,23.67
2018-08-24T03:40:17.621Z,23.66
2018-08-24T03:41:17.440Z,23.67
2018-08-24T03:42:17.621Z,23.67
2018-08-24T03:43:17.589Z,23.67
2018-08-24T03:44:17.644Z,23.67
2018-08-24T03:45:17.606Z,23.67
2018-08-24T03:46:17.536Z,23.67
2018-08-24T03:47:17.648Z,23.66
2018-08-24T03:48:17.575Z,23.67
2018-08-24T03:49:17.494Z,23.67
2018-08-24T03:50:17.668Z,23.67
2018-08-24T03:51:17.751Z,23.66
2018-08-24T03:52:17.506Z,23.67
2018-08-24T03:53:17.656Z,23.66
2018-08-24T03:54:17.617Z,23.67
2018-08-24T03:55:17.709Z,23.66
2018-08-24T03:56:17.765Z,23.66
2018-08-24T03:57:17.593Z,23.66
2018-08-24T03:58:17.558Z,23.66
2018-08-24T03:59:17.751Z,23.67
2018-08-24T04:00:17.544Z,23.66
2018-08-24T04:01:17.660Z,23.65
2018-08-24T04:02:17.750Z,23.67
2018-08-24T04:03:17.568Z,23.66
2018-08-24T04:04:17.596Z,23.66
2018-08-24T04:05:17.586Z,23.66
2018-08-24T04:06:17.598Z,23.67
2018-08-24T04:07:17.609Z,23.66
2018-08-24T04:08:17.542Z,23.66
2018-08-24T04:09:17.648Z,23.66
2018-08-24T04:10:17.571Z,23.66
2018-08-24T04:11:17.452Z,23.66
2018-08-24T04:12:17.549Z,23.66
2018-08-24T04:13:17.482Z,23.66
2018-08-24T04:14:17.405Z,23.66
2018-08-24T04:15:17.481Z,23.66
2018-08-24T04:16:17.568Z,23.66
2018-08-24T04:17:17.482Z,23.66
2018-08-24T04:18:17.492Z,23.66
2018-08-24T04:19:17.734Z,23.65
2018-08-24T04:20:17.956Z,23.66
2018-08-24T04:21:17.581Z,23.66
2018-08-24T04:22:17.577Z,23.65
2018-08-24T04:23:17.631Z,23.65
2018-08-24T04:24:17.550Z,23.65
2018-08-24T04:25:17.361Z,23.65
2018-08-24T04:26:17.541Z,23.65
2018-08-24T04:27:17.549Z,23.65
2018-08-24T04:28:17.649Z,23.64
2018-08-24T04:29:17.606Z,23.65
2018-08-24T04:30:17.393Z,23.65
2018-08-24T04:31:17.676Z,23.64
2018-08-24T04:32:17.714Z,23.65
2018-08-24T04:33:17.786Z,23.65
2018-08-24T04:34:17.616Z,23.64
2018-08-24T04:35:17.659Z,23.66
2018-08-24T04:36:17.514Z,23.64
2018-08-24T04:37:17.474Z,23.64
2018-08-24T04:38:17.576Z,23.64
2018-08-24T04:39:17.661Z,23.65
2018-08-24T04:40:17.773Z,23.64
2018-08-24T04:41:17.554Z,23.64
2018-08-24T04:42:17.658Z,23.64
2018-08-24T04:43:17.609Z,23.65
2018-08-24T04:44:17.853Z,23.65
2018-08-24T04:45:17.657Z,23.64
2018-08-24T04:46:17.536Z,23.64
2018-08-24T04:47:17.442Z,23.65
2018-08-24T04:48:17.531Z,23.64
2018-08-24T04:49:17.562Z,23.64
2018-08-24T04:50:18.004Z,23.64
2018-08-24T04:51:17.722Z,23.64
2018-08-24T04:52:17.686Z,23.64
2018-08-24T04:53:17.495Z,23.64
2018-08-24T04:54:17.767Z,23.65
2018-08-24T04:55:17.530Z,23.63
2018-08-24T04:56:17.697Z,23.64
2018-08-24T04:57:17.739Z,23.64
2018-08-24T04:58:17.624Z,23.64
2018-08-24T04:59:17.632Z,23.64
2018-08-24T05:00:17.718Z,23.63
2018-08-24T05:01:17.457Z,23.63
2018-08-24T05:02:17.742Z,23.64
2018-08-24T05:03:17.963Z,23.64
2018-08-24T05:04:17.620Z,23.63
2018-08-24T05:05:17.696Z,23.63
2018-08-24T05:06:17.629Z,23.64
2018-08-24T05:07:17.660Z,23.63
2018-08-24T05:08:18.099Z,23.64
2018-08-24T05:09:17.605Z,23.64
2018-08-24T05:10:17.721Z,23.64
2018-08-24T05:11:17.506Z,23.64
2018-08-24T05:12:17.655Z,23.64
2018-08-24T05:13:17.608Z,23.64
2018-08-24T05:14:17.559Z,23.64
2018-08-24T05:15:17.590Z,23.64
2018-08-24T05:16:17.679Z,23.64
2018-08-24T05:17:17.677Z,23.64
2018-08-24T05:18:17.689Z,23.64
2018-08-24T05:19:17.690Z,23.63
2018-08-24T05:20:17.629Z,23.64
2018-08-24T05:21:17.626Z,23.64
2018-08-24T05:22:17.725Z,23.63
2018-08-24T05:23:17.540Z,23.64
2018-08-24T05:24:17.659Z,23.64
2018-08-24T05:25:17.667Z,23.63
2018-08-24T05:26:17.797Z,23.64
2018-08-24T05:27:17.633Z,23.63
2018-08-24T05:28:17.717Z,23.63
2018-08-24T05:29:17.489Z,23.64
2018-08-24T05:30:17.521Z,23.64
2018-08-24T05:31:17.676Z,23.62
2018-08-24T05:32:17.601Z,23.63
2018-08-24T05:33:17.604Z,23.64
2018-08-24T05:34:17.799Z,23.63
2018-08-24T05:35:17.423Z,23.64
2018-08-24T05:36:17.605Z,23.64
2018-08-24T05:37:17.827Z,23.64
2018-08-24T05:38:17.463Z,23.64
2018-08-24T05:39:17.540Z,23.64
2018-08-24T05:40:17.501Z,23.63
2018-08-24T05:41:17.666Z,23.64
2018-08-24T05:42:17.657Z,23.64
2018-08-24T05:43:17.577Z,23.64
2018-08-24T05:44:17.607Z,23.63
2018-08-24T05:45:17.522Z,23.64
2018-08-24T05:46:17.445Z,23.63
2018-08-24T05:47:17.643Z,23.63
2018-08-24T05:48:17.625Z,23.63
2018-08-24T05:49:17.628Z,23.63
2018-08-24T05:50:17.623Z,23.63
2018-08-24T05:51:17.607Z,23.63
2018-08-24T05:52:17.489Z,23.63
2018-08-24T05:53:17.662Z,23.63
2018-08-24T05:54:17.718Z,23.63
2018-08-24T05:55:17.760Z,23.63
2018-08-24T05:56:17.671Z,23.64
2018-08-24T05:57:17.662Z,23.63
2018-08-24T05:58:17.515Z,23.63
2018-08-24T05:59:17.663Z,23.63
2018-08-24T06:00:17.457Z,23.63
2018-08-24T06:01:17.707Z,23.62
2018-08-24T06:02:17.608Z,23.62
2018-08-24T06:03:17.531Z,23.63
2018-08-24T06:04:17.452Z,23.62
2018-08-24T06:05:17.610Z,23.63
2018-08-24T06:06:17.419Z,23.63
2018-08-24T06:07:17.837Z,23.62
2018-08-24T06:08:17.633Z,23.63
2018-08-24T06:09:17.676Z,23.63
2018-08-24T06:10:17.501Z,23.62
2018-08-24T06:11:17.737Z,23.62
2018-08-24T06:12:17.732Z,23.63
2018-08-24T06:13:17.810Z,23.62
2018-08-24T06:14:17.727Z,23.63
2018-08-24T06:15:18.349Z,23.63
2018-08-24T06:16:17.975Z,23.63
2018-08-24T06:17:17.701Z,23.63
2018-08-24T06:18:17.795Z,23.63
2018-08-24T06:19:17.623Z,23.62
2018-08-24T06:20:17.616Z,23.62
2018-08-24T06:21:17.665Z,23.63
2018-08-24T06:22:17.676Z,23.62
2018-08-24T06:23:17.597Z,23.63
2018-08-24T06:24:17.724Z,23.63
2018-08-24T06:25:17.636Z,23.62
2018-08-24T06:26:17.669Z,23.63
2018-08-24T06:27:17.692Z,23.63
2018-08-24T06:28:17.528Z,23.62
2018-08-24T06:29:18.091Z,23.63
2018-08-24T06:30:17.459Z,23.63
2018-08-24T06:31:17.672Z,23.62
2018-08-24T06:32:17.851Z,23.62
2018-08-24T06:33:17.612Z,23.63
2018-08-24T06:34:17.661Z,23.62
2018-08-24T06:35:17.808Z,23.63
2018-08-24T06:36:17.466Z,23.62
2018-08-24T06:37:17.620Z,23.62
2018-08-24T06:38:17.697Z,23.62
2018-08-24T06:39:17.602Z,23.63
2018-08-24T06:40:18.112Z,23.62
2018-08-24T06:41:17.419Z,23.62
2018-08-24T06:42:17.577Z,23.63
2018-08-24T06:43:18.208Z,23.63
2018-08-24T06:44:17.553Z,23.62
2018-08-24T06:45:17.725Z,23.62
2018-08-24T06:46:17.564Z,23.62
2018-08-24T06:47:17.542Z,23.63
2018-08-24T06:48:17.729Z,23.62
2018-08-24T06:49:17.581Z,23.62
2018-08-24T06:50:17.546Z,23.62
2018-08-24T06:51:17.809Z,23.62
2018-08-24T06:52:17.453Z,23.62
2018-08-24T06:53:17.731Z,23.62
2018-08-24T06:54:17.567Z,23.62
2018-08-24T06:55:17.476Z,23.62
2018-08-24T06:56:17.546Z,23.61
2018-08-24T06:57:17.471Z,23.62
2018-08-24T06:58:17.525Z,23.61
2018-08-24T06:59:17.863Z,23.62
2018-08-24T07:00:17.658Z,23.63
2018-08-24T07:01:17.870Z,23.61
2018-08-24T07:02:17.562Z,23.62
2018-08-24T07:03:17.407Z,23.62
2018-08-24T07:04:17.763Z,23.61
2018-08-24T07:05:17.599Z,23.62
2018-08-24T07:06:17.510Z,23.62
2018-08-24T07:07:17.457Z,23.61
2018-08-24T07:08:17.857Z,23.62
2018-08-24T07:09:17.933Z,23.62
2018-08-24T07:10:17.666Z,23.62
2018-08-24T07:11:17.765Z,23.62
2018-08-24T07:12:17.664Z,23.62
2018-08-24T07:13:17.860Z,23.62
2018-08-24T07:14:17.352Z,23.62
2018-08-24T07:15:17.699Z,23.62
2018-08-24T07:16:17.611Z,23.62
2018-08-24T07:17:17.699Z,23.62
2018-08-24T07:18:17.702Z,23.62
2018-08-24T07:19:17.685Z,23.61
2018-08-24T07:20:17.585Z,23.62
2018-08-24T07:21:17.625Z,23.62
2018-08-24T07:22:17.453Z,23.61
2018-08-24T07:23:17.699Z,23.62
2018-08-24T07:24:17.578Z,23.62
2018-08-24T07:25:17.521Z,23.61
2018-08-24T07:26:17.554Z,23.62
2018-08-24T07:27:17.663Z,23.62
2018-08-24T07:28:17.931Z,23.61
2018-08-24T07:29:17.832Z,23.61
2018-08-24T07:30:17.791Z,23.62
2018-08-24T07:31:17.904Z,23.61
2018-08-24T07:32:17.811Z,23.61
2018-08-24T07:33:17.652Z,23.62
2018-08-24T07:34:17.605Z,23.62
2018-08-24T07:35:17.795Z,23.62
2018-08-24T07:36:17.376Z,23.62
2018-08-24T07:37:17.651Z,23.6
2018-08-24T07:38:17.709Z,23.59
2018-08-24T07:39:17.707Z,23.62
2018-08-24T07:40:17.512Z,23.63
2018-08-24T07:41:17.983Z,23.65
2018-08-24T07:42:17.623Z,23.64
2018-08-24T07:43:17.673Z,23.65
2018-08-24T07:44:17.736Z,23.64
2018-08-24T07:45:17.590Z,23.65
2018-08-24T07:46:17.670Z,23.67
2018-08-24T07:47:17.369Z,23.7
2018-08-24T07:48:17.736Z,23.71
2018-08-24T07:49:17.603Z,23.72
2018-08-24T07:50:17.510Z,23.72
2018-08-24T07:51:17.905Z,23.72
2018-08-24T07:52:17.800Z,23.71
2018-08-24T07:53:17.623Z,23.7
2018-08-24T07:54:17.682Z,23.72
2018-08-24T07:55:17.598Z,23.7
2018-08-24T07:56:17.610Z,23.69
2018-08-24T07:57:17.694Z,23.69
2018-08-24T07:58:17.420Z,23.68
2018-08-24T07:59:17.379Z,23.69
2018-08-24T08:00:17.571Z,23.69
2018-08-24T08:01:17.658Z,23.69
2018-08-24T08:02:17.678Z,23.69
2018-08-24T08:03:17.445Z,23.68
2018-08-24T08:04:17.595Z,23.66
2018-08-24T08:05:17.705Z,23.67
2018-08-24T08:06:18.015Z,23.67
2018-08-24T08:07:17.559Z,23.67
2018-08-24T08:08:17.671Z,23.67
2018-08-24T08:09:17.376Z,23.68
2018-08-24T08:10:17.608Z,23.66
2018-08-24T08:11:17.582Z,23.67
2018-08-24T08:12:17.639Z,23.67
2018-08-24T08:13:17.574Z,23.66
2018-08-24T08:14:17.709Z,23.67
2018-08-24T08:15:17.482Z,23.66
2018-08-24T08:16:17.436Z,23.66
2018-08-24T08:17:17.550Z,23.67
2018-08-24T08:18:17.776Z,23.67
2018-08-24T08:19:17.496Z,23.67
2018-08-24T08:20:17.470Z,23.67
2018-08-24T08:21:17.486Z,23.66
2018-08-24T08:22:17.491Z,23.65
2018-08-24T08:23:17.656Z,23.66
2018-08-24T08:24:17.677Z,23.66
2018-08-24T08:25:17.424Z,23.65
2018-08-24T08:26:17.518Z,23.65
2018-08-24T08:27:17.629Z,23.67
2018-08-24T08:28:17.651Z,23.65
2018-08-24T08:29:17.517Z,23.66
2018-08-24T08:30:17.707Z,23.65
2018-08-24T08:31:17.683Z,23.65
2018-08-24T08:32:17.639Z,23.65
2018-08-24T08:33:17.672Z,23.65
2018-08-24T08:34:17.761Z,23.64
2018-08-24T08:35:17.777Z,23.64
2018-08-24T08:36:17.697Z,23.66
2018-08-24T08:37:17.654Z,23.65
2018-08-24T08:38:17.694Z,23.64
2018-08-24T08:39:17.654Z,23.65
2018-08-24T08:40:17.732Z,23.64
2018-08-24T08:41:17.485Z,23.64
2018-08-24T08:42:17.431Z,23.65
2018-08-24T08:43:18.069Z,23.65
2018-08-24T08:44:17.513Z,23.65
2018-08-24T08:45:17.569Z,23.64
2018-08-24T08:46:17.485Z,23.64
2018-08-24T08:47:17.467Z,23.65
2018-08-24T08:48:18.014Z,23.64
2018-08-24T08:49:17.741Z,23.63
2018-08-24T08:50:17.666Z,23.64
2018-08-24T08:51:17.651Z,23.64
2018-08-24T08:52:17.621Z,23.64
2018-08-24T08:53:17.400Z,23.64
2018-08-24T08:54:17.679Z,23.65
2018-08-24T08:55:17.819Z,23.64
2018-08-24T08:56:17.393Z,23.64
2018-08-24T08:57:17.643Z,23.64
2018-08-24T08:58:17.648Z,23.64
2018-08-24T08:59:17.772Z,23.64
2018-08-24T09:00:17.402Z,23.64
2018-08-24T09:01:17.547Z,23.64
2018-08-24T09:02:17.657Z,23.64
2018-08-24T09:03:17.773Z,23.64
2018-08-24T09:04:17.461Z,23.63
2018-08-24T09:05:17.665Z,23.64
2018-08-24T09:06:17.684Z,23.64
2018-08-24T09:07:17.667Z,23.64
2018-08-24T09:08:17.422Z,23.64
2018-08-24T09:09:17.630Z,23.64
2018-08-24T09:10:17.607Z,23.63
2018-08-24T09:11:17.614Z,23.64
2018-08-24T09:12:17.680Z,23.64
2018-08-24T09:13:17.670Z,23.63
2018-08-24T09:14:17.969Z,23.64
2018-08-24T09:15:17.431Z,23.64
2018-08-24T09:16:17.618Z,23.64
2018-08-24T09:17:17.690Z,23.63
2018-08-24T09:18:17.664Z,23.64
2018-08-24T09:19:17.678Z,23.63
2018-08-24T09:20:17.641Z,23.63
2018-08-24T09:21:17.509Z,23.63
2018-08-24T09:22:17.712Z,23.64
2018-08-24T09:23:17.973Z,23.63
2018-08-24T09:24:17.704Z,23.63
2018-08-24T09:25:17.517Z,23.63
2018-08-24T09:26:17.444Z,23.63
2018-08-24T09:27:17.485Z,23.63
2018-08-24T09:28:17.516Z,23.63
2018-08-24T09:29:17.414Z,23.63
2018-08-24T09:30:17.606Z,23.63
2018-08-24T09:31:17.547Z,23.63
2018-08-24T09:32:17.542Z,23.62
2018-08-24T09:33:17.574Z,23.63
2018-08-24T09:34:17.524Z,23.62
2018-08-24T09:35:17.497Z,23.62
2018-08-24T09:36:17.623Z,23.63
2018-08-24T09:37:17.358Z,23.62
2018-08-24T09:38:17.473Z,23.63
2018-08-24T09:39:17.575Z,23.63
2018-08-24T09:40:17.647Z,23.62
2018-08-24T09:41:17.524Z,23.62
2018-08-24T09:42:17.584Z,23.63
2018-08-24T09:43:17.580Z,23.62
2018-08-24T09:44:17.609Z,23.62
2018-08-24T09:45:17.508Z,23.62
2018-08-24T09:46:17.602Z,23.62
2018-08-24T09:47:17.485Z,23.63
2018-08-24T09:48:17.498Z,23.62
2018-08-24T09:49:17.641Z,23.62
2018-08-24T09:50:17.822Z,23.63
2018-08-24T09:51:17.778Z,23.62
2018-08-24T09:52:18.010Z,23.62
2018-08-24T09:53:17.767Z,23.62
2018-08-24T09:54:17.588Z,23.62
2018-08-24T09:55:17.764Z,23.61
2018-08-24T09:56:17.795Z,23.62
2018-08-24T09:57:17.415Z,23.62
2018-08-24T09:58:17.466Z,23.61
2018-08-24T09:59:17.613Z,23.61
2018-08-24T10:00:17.794Z,23.61
2018-08-24T10:01:17.685Z,23.61
2018-08-24T10:02:17.448Z,23.61
2018-08-24T10:03:17.606Z,23.61
2018-08-24T10:04:17.758Z,23.6
2018-08-24T10:05:17.713Z,23.61
2018-08-24T10:06:17.711Z,23.61
2018-08-24T10:07:17.792Z,23.61
2018-08-24T10:08:17.851Z,23.6
2018-08-24T10:09:17.744Z,23.6
2018-08-24T10:10:17.381Z,23.59
2018-08-24T10:11:17.519Z,23.59
2018-08-24T10:12:17.817Z,23.6
2018-08-24T10:13:17.743Z,23.6
2018-08-24T10:14:17.658Z,23.59
2018-08-24T10:15:17.417Z,23.59
2018-08-24T10:16:17.563Z,23.59
2018-08-24T10:17:17.596Z,23.6
2018-08-24T10:18:17.836Z,23.59
2018-08-24T10:19:17.793Z,23.58
2018-08-24T10:20:17.672Z,23.59
2018-08-24T10:21:17.380Z,23.59
2018-08-24T10:22:17.506Z,23.59
2018-08-24T10:23:17.828Z,23.59
2018-08-24T10:24:17.639Z,23.6
2018-08-24T10:25:17.811Z,23.58
2018-08-24T10:26:17.719Z,23.45
2018-08-24T10:27:17.466Z,23.33
2018-08-24T10:28:17.707Z,23.25
2018-08-24T10:29:17.699Z,23.06
2018-08-24T10:30:17.812Z,22.97
2018-08-24T10:31:17.693Z,22.88
2018-08-24T10:32:17.527Z,22.86
2018-08-24T10:33:17.577Z,22.76
2018-08-24T10:34:17.623Z,22.78
2018-08-24T10:35:17.657Z,22.72
2018-08-24T10:36:17.687Z,22.82
2018-08-24T10:37:17.673Z,22.7
2018-08-24T10:38:17.516Z,22.61
2018-08-24T10:39:17.678Z,22.57
2018-08-24T10:40:17.716Z,22.49
2018-08-24T10:41:17.720Z,22.38
2018-08-24T10:42:17.740Z,22.52
2018-08-24T10:43:17.369Z,22.31
2018-08-24T10:44:17.643Z,22.35
2018-08-24T10:45:17.598Z,22.33
2018-08-24T10:46:18.208Z,22.29
2018-08-24T10:47:17.715Z,22.29
2018-08-24T10:48:17.461Z,22.27
2018-08-24T10:49:17.854Z,22.21
2018-08-24T10:50:17.628Z,22.14
2018-08-24T10:51:17.578Z,22.13
2018-08-24T10:52:17.513Z,22.23
2018-08-24T10:53:17.698Z,21.97
2018-08-24T10:54:17.499Z,22.03
2018-08-24T10:55:17.477Z,22.08
2018-08-24T10:56:17.860Z,22.11
2018-08-24T10:57:17.656Z,22.19
2018-08-24T10:58:17.501Z,22.25
2018-08-24T10:59:17.669Z,22.29
2018-08-24T11:00:17.583Z,22.37
2018-08-24T11:01:17.466Z,22.38
2018-08-24T11:02:17.531Z,22.4
2018-08-24T11:03:17.637Z,22.43
2018-08-24T11:04:17.424Z,22.46
2018-08-24T11:05:17.517Z,22.49
2018-08-24T11:06:17.539Z,22.5
2018-08-24T11:07:17.486Z,22.53
2018-08-24T11:08:17.597Z,22.54
2018-08-24T11:09:17.479Z,22.58
2018-08-24T11:10:17.570Z,22.58
2018-08-24T11:11:17.775Z,22.58
2018-08-24T11:12:17.740Z,22.62
2018-08-24T11:13:17.582Z,22.65
2018-08-24T11:14:17.558Z,22.64
2018-08-24T11:15:17.597Z,22.65
2018-08-24T11:16:17.507Z,22.69
2018-08-24T11:17:17.617Z,22.68
2018-08-24T11:18:17.600Z,22.71
2018-08-24T11:19:17.683Z,22.7
2018-08-24T11:20:17.427Z,22.75
2018-08-24T11:21:17.673Z,22.76
2018-08-24T11:22:17.865Z,22.75
2018-08-24T11:23:17.676Z,22.77
2018-08-24T11:24:17.643Z,22.77
2018-08-24T11:25:17.893Z,22.8
2018-08-24T11:26:17.694Z,22.83
2018-08-24T11:27:17.445Z,22.84
2018-08-24T11:28:17.627Z,22.86
2018-08-24T11:29:17.773Z,22.88
2018-08-24T11:30:17.397Z,22.88
2018-08-24T11:31:17.603Z,22.88
2018-08-24T11:32:17.650Z,22.91
2018-08-24T11:33:17.666Z,22.92
2018-08-24T11:34:17.776Z,22.94
2018-08-24T11:35:17.647Z,22.93
2018-08-24T11:36:17.674Z,22.95
2018-08-24T11:37:17.619Z,22.95
2018-08-24T11:38:17.438Z,22.95
2018-08-24T11:39:17.859Z,22.95
2018-08-24T11:40:17.306Z,22.96
2018-08-24T11:41:17.419Z,22.98
2018-08-24T11:42:17.736Z,22.96
2018-08-24T11:43:17.476Z,22.97
2018-08-24T11:44:17.409Z,22.97
2018-08-24T11:45:17.615Z,22.97
2018-08-24T11:46:17.501Z,22.98
2018-08-24T11:47:17.708Z,22.97
2018-08-24T11:48:17.418Z,22.98
2018-08-24T11:49:17.520Z,22.98
2018-08-24T11:50:17.670Z,23
2018-08-24T11:51:17.391Z,23
2018-08-24T11:52:17.681Z,23
2018-08-24T11:53:17.449Z,23.02
2018-08-24T11:54:17.432Z,23.03
2018-08-24T11:55:17.876Z,23.03
2018-08-24T11:56:17.877Z,23.01
2018-08-24T11:57:17.731Z,23.01
2018-08-24T11:58:17.452Z,23.03
2018-08-24T11:59:17.749Z,23.03
2018-08-24T12:00:17.753Z,23.01
2018-08-24T12:01:17.705Z,23
2018-08-24T12:02:17.363Z,23.01
2018-08-24T12:03:17.704Z,23.01
2018-08-24T12:04:17.575Z,23.03
2018-08-24T12:05:17.776Z,23.04
2018-08-24T12:06:17.512Z,23.03
2018-08-24T12:07:17.712Z,23.02
2018-08-24T12:08:17.762Z,23.03
2018-08-24T12:09:17.429Z,23.03
2018-08-24T12:10:17.667Z,23.03
2018-08-24T12:11:17.666Z,23.04
2018-08-24T12:12:17.784Z,23.04
2018-08-24T12:13:17.436Z,23.04
2018-08-24T12:14:17.657Z,23.04
2018-08-24T12:15:17.546Z,23.05
2018-08-24T12:16:17.575Z,23.05
2018-08-24T12:17:17.526Z,23.05
2018-08-24T12:18:17.910Z,23.05
2018-08-24T12:19:17.426Z,23.05
2018-08-24T12:20:17.668Z,23.06
2018-08-24T12:21:17.693Z,23.06
2018-08-24T12:22:17.474Z,23.06
2018-08-24T12:23:17.560Z,23.06
2018-08-24T12:24:17.481Z,23.07
2018-08-24T12:25:17.356Z,23.06
2018-08-24T12:26:17.708Z,23.07
2018-08-24T12:27:17.550Z,23.08
2018-08-24T12:28:17.613Z,23.07
2018-08-24T12:29:17.504Z,23.07
2018-08-24T12:30:17.631Z,23.08
2018-08-24T12:31:17.952Z,23.08
2018-08-24T12:32:17.381Z,23.08
2018-08-24T12:33:17.667Z,23.1
2018-08-24T12:34:17.422Z,23.1
2018-08-24T12:35:17.316Z,23.1
2018-08-24T12:36:17.756Z,23.09
2018-08-24T12:37:17.656Z,23.1
2018-08-24T12:38:18.071Z,23.1
2018-08-24T12:39:17.735Z,23.1
2018-08-24T12:40:17.728Z,23.1
2018-08-24T12:41:17.543Z,23.11
2018-08-24T12:42:17.789Z,23.11
2018-08-24T12:43:17.691Z,23.11
2018-08-24T12:44:17.624Z,23.11
2018-08-24T12:45:17.401Z,23.12
2018-08-24T12:46:17.450Z,23.11
2018-08-24T12:47:17.534Z,23.12
2018-08-24T12:48:17.835Z,23.12
2018-08-24T12:49:17.941Z,23.11
2018-08-24T12:50:17.491Z,23.12
2018-08-24T12:51:17.442Z,23.12
2018-08-24T12:52:17.423Z,23.12
2018-08-24T12:53:17.622Z,23.13
2018-08-24T12:54:17.503Z,23.13